sensor_id;sensor_type;location;lat;lon;timestamp;P1;durP1;ratioP1;P2;durP2;ratioP2
5428;SDS011;2737;52.386;9.980;2022-11-04T00:01:45;5.40;;;3.73;;
5428;SDS011;2737;52.386;9.980;2022-11-04T00:04:15;5.20;;;2.90;;
5428;SDS011;2737;52.386;9.980;2022-11-04T00:06:43;13.73;;;3.70;;
5428;SDS011;2737;52.386;9.980;2022-11-04T00:09:11;6.27;;;3.37;;
5428;SDS011;2737;52.386;9.980;2022-11-04T00:11:41;10.87;;;3.63;;
5428;SDS011;2737;52.386;9.980;2022-11-04T00:14:27;5.93;;;3.23;;
5428;SDS011;2737;52.386;9.980;2022-11-04T00:16:54;6.50;;;3.43;;
5428;SDS011;2737;52.386;9.980;2022-11-04T00:19:40;9.63;;;3.47;;
5428;SDS011;2737;52.386;9.980;2022-11-04T00:22:25;5.90;;;3.50;;
5428;SDS011;2737;52.386;9.980;2022-11-04T00:25:07;15.20;;;3.00;;
5428;SDS011;2737;52.386;9.980;2022-11-04T00:27:51;9.73;;;3.50;;
5428;SDS011;2737;52.386;9.980;2022-11-04T00:30:43;9.20;;;3.60;;
5428;SDS011;2737;52.386;9.980;2022-11-04T00:33:10;5.47;;;3.23;;
5428;SDS011;2737;52.386;9.980;2022-11-04T00:35:54;9.20;;;3.47;;
5428;SDS011;2737;52.386;9.980;2022-11-04T00:38:22;7.23;;;3.87;;
5428;SDS011;2737;52.386;9.980;2022-11-04T00:40:50;5.80;;;3.80;;
5428;SDS011;2737;52.386;9.980;2022-11-04T00:43:17;7.90;;;4.00;;
5428;SDS011;2737;52.386;9.980;2022-11-04T00:45:45;7.13;;;3.30;;
5428;SDS011;2737;52.386;9.980;2022-11-04T00:48:12;6.33;;;4.13;;
5428;SDS011;2737;52.386;9.980;2022-11-04T00:50:39;11.30;;;3.80;;
5428;SDS011;2737;52.386;9.980;2022-11-04T00:53:08;4.90;;;3.60;;
5428;SDS011;2737;52.386;9.980;2022-11-04T00:55:35;6.57;;;4.43;;
5428;SDS011;2737;52.386;9.980;2022-11-04T00:58:02;8.87;;;4.87;;
5428;SDS011;2737;52.386;9.980;2022-11-04T01:00:29;9.63;;;4.17;;
5428;SDS011;2737;52.386;9.980;2022-11-04T01:02:56;7.77;;;4.20;;
5428;SDS011;2737;52.386;9.980;2022-11-04T01:05:25;7.17;;;4.13;;
5428;SDS011;2737;52.386;9.980;2022-11-04T01:07:52;9.23;;;3.80;;
5428;SDS011;2737;52.386;9.980;2022-11-04T01:10:21;10.33;;;4.40;;
5428;SDS011;2737;52.386;9.980;2022-11-04T01:12:50;5.93;;;3.73;;
5428;SDS011;2737;52.386;9.980;2022-11-04T01:15:18;10.10;;;4.23;;
5428;SDS011;2737;52.386;9.980;2022-11-04T01:17:45;9.30;;;4.13;;
5428;SDS011;2737;52.386;9.980;2022-11-04T01:20:12;10.10;;;4.00;;
5428;SDS011;2737;52.386;9.980;2022-11-04T01:22:39;7.40;;;4.33;;
5428;SDS011;2737;52.386;9.980;2022-11-04T01:25:06;11.30;;;4.20;;
5428;SDS011;2737;52.386;9.980;2022-11-04T01:27:35;10.07;;;4.03;;
5428;SDS011;2737;52.386;9.980;2022-11-04T01:30:03;7.20;;;4.00;;
5428;SDS011;2737;52.386;9.980;2022-11-04T01:32:31;7.13;;;4.17;;
5428;SDS011;2737;52.386;9.980;2022-11-04T01:34:58;6.83;;;3.40;;
5428;SDS011;2737;52.386;9.980;2022-11-04T01:37:25;9.43;;;4.03;;
5428;SDS011;2737;52.386;9.980;2022-11-04T01:39:52;7.03;;;4.23;;
5428;SDS011;2737;52.386;9.980;2022-11-04T01:42:20;8.50;;;4.77;;
5428;SDS011;2737;52.386;9.980;2022-11-04T01:44:53;12.53;;;4.63;;
5428;SDS011;2737;52.386;9.980;2022-11-04T01:47:29;9.57;;;4.60;;
5428;SDS011;2737;52.386;9.980;2022-11-04T01:50:02;7.57;;;4.07;;
5428;SDS011;2737;52.386;9.980;2022-11-04T01:52:33;10.40;;;4.47;;
5428;SDS011;2737;52.386;9.980;2022-11-04T01:55:05;5.40;;;4.00;;
5428;SDS011;2737;52.386;9.980;2022-11-04T01:57:37;10.40;;;4.37;;
5428;SDS011;2737;52.386;9.980;2022-11-04T02:00:08;10.67;;;5.00;;
5428;SDS011;2737;52.386;9.980;2022-11-04T02:02:38;6.30;;;4.13;;
5428;SDS011;2737;52.386;9.980;2022-11-04T02:05:12;7.43;;;4.90;;
5428;SDS011;2737;52.386;9.980;2022-11-04T02:07:39;8.40;;;4.47;;
5428;SDS011;2737;52.386;9.980;2022-11-04T02:10:06;7.60;;;3.80;;
5428;SDS011;2737;52.386;9.980;2022-11-04T02:12:34;11.70;;;4.40;;
5428;SDS011;2737;52.386;9.980;2022-11-04T02:15:16;12.10;;;5.77;;
5428;SDS011;2737;52.386;9.980;2022-11-04T02:20:56;9.80;;;4.40;;
5428;SDS011;2737;52.386;9.980;2022-11-04T02:23:44;8.67;;;4.50;;
5428;SDS011;2737;52.386;9.980;2022-11-04T02:29:34;9.40;;;3.80;;
5428;SDS011;2737;52.386;9.980;2022-11-04T02:32:26;6.00;;;3.57;;
5428;SDS011;2737;52.386;9.980;2022-11-04T02:35:04;5.90;;;4.33;;
5428;SDS011;2737;52.386;9.980;2022-11-04T02:37:36;5.20;;;3.60;;
5428;SDS011;2737;52.386;9.980;2022-11-04T02:40:15;9.20;;;4.37;;
5428;SDS011;2737;52.386;9.980;2022-11-04T02:42:52;8.60;;;4.87;;
5428;SDS011;2737;52.386;9.980;2022-11-04T02:45:27;13.93;;;4.80;;
5428;SDS011;2737;52.386;9.980;2022-11-04T02:48:00;6.47;;;3.47;;
5428;SDS011;2737;52.386;9.980;2022-11-04T02:50:37;7.10;;;4.20;;
5428;SDS011;2737;52.386;9.980;2022-11-04T02:53:11;12.50;;;4.90;;
5428;SDS011;2737;52.386;9.980;2022-11-04T02:55:42;6.17;;;4.43;;
5428;SDS011;2737;52.386;9.980;2022-11-04T02:58:13;7.03;;;4.77;;
5428;SDS011;2737;52.386;9.980;2022-11-04T03:00:46;5.80;;;4.33;;
5428;SDS011;2737;52.386;9.980;2022-11-04T03:03:16;6.40;;;4.73;;
5428;SDS011;2737;52.386;9.980;2022-11-04T03:05:48;9.03;;;4.73;;
5428;SDS011;2737;52.386;9.980;2022-11-04T03:08:19;6.13;;;4.30;;
5428;SDS011;2737;52.386;9.980;2022-11-04T03:10:51;7.63;;;4.10;;
5428;SDS011;2737;52.386;9.980;2022-11-04T03:13:22;5.70;;;4.50;;
5428;SDS011;2737;52.386;9.980;2022-11-04T03:15:56;7.60;;;4.70;;
5428;SDS011;2737;52.386;9.980;2022-11-04T03:18:29;8.33;;;4.70;;
5428;SDS011;2737;52.386;9.980;2022-11-04T03:21:02;7.23;;;4.77;;
5428;SDS011;2737;52.386;9.980;2022-11-04T03:23:32;6.27;;;4.27;;
5428;SDS011;2737;52.386;9.980;2022-11-04T03:26:02;6.10;;;3.77;;
5428;SDS011;2737;52.386;9.980;2022-11-04T03:28:38;6.17;;;3.57;;
5428;SDS011;2737;52.386;9.980;2022-11-04T03:31:12;5.30;;;4.27;;
5428;SDS011;2737;52.386;9.980;2022-11-04T03:33:46;6.37;;;3.63;;
5428;SDS011;2737;52.386;9.980;2022-11-04T03:36:15;4.37;;;3.10;;
5428;SDS011;2737;52.386;9.980;2022-11-04T03:38:43;8.33;;;3.20;;
5428;SDS011;2737;52.386;9.980;2022-11-04T03:41:12;5.13;;;2.47;;
5428;SDS011;2737;52.386;9.980;2022-11-04T03:43:43;1.93;;;1.73;;
5428;SDS011;2737;52.386;9.980;2022-11-04T03:46:12;3.70;;;2.20;;
5428;SDS011;2737;52.386;9.980;2022-11-04T03:48:39;3.20;;;2.30;;
5428;SDS011;2737;52.386;9.980;2022-11-04T03:51:09;4.30;;;2.37;;
5428;SDS011;2737;52.386;9.980;2022-11-04T03:53:36;3.43;;;2.27;;
5428;SDS011;2737;52.386;9.980;2022-11-04T03:56:07;5.80;;;2.40;;
5428;SDS011;2737;52.386;9.980;2022-11-04T03:58:48;5.57;;;2.33;;
5428;SDS011;2737;52.386;9.980;2022-11-04T04:01:27;5.30;;;2.40;;
5428;SDS011;2737;52.386;9.980;2022-11-04T04:04:03;2.30;;;1.50;;
5428;SDS011;2737;52.386;9.980;2022-11-04T04:06:37;2.60;;;1.33;;
5428;SDS011;2737;52.386;9.980;2022-11-04T04:09:09;2.10;;;1.20;;
5428;SDS011;2737;52.386;9.980;2022-11-04T04:11:44;3.43;;;1.43;;
5428;SDS011;2737;52.386;9.980;2022-11-04T04:14:16;2.10;;;1.23;;
5428;SDS011;2737;52.386;9.980;2022-11-04T04:17:03;2.50;;;1.43;;
5428;SDS011;2737;52.386;9.980;2022-11-04T04:19:34;1.77;;;1.67;;
5428;SDS011;2737;52.386;9.980;2022-11-04T04:22:02;1.50;;;1.40;;
5428;SDS011;2737;52.386;9.980;2022-11-04T04:24:34;5.33;;;1.80;;
5428;SDS011;2737;52.386;9.980;2022-11-04T04:27:22;2.53;;;1.60;;
5428;SDS011;2737;52.386;9.980;2022-11-04T04:29:58;1.97;;;1.57;;
5428;SDS011;2737;52.386;9.980;2022-11-04T04:32:31;2.73;;;1.50;;
5428;SDS011;2737;52.386;9.980;2022-11-04T04:35:01;4.27;;;2.30;;
5428;SDS011;2737;52.386;9.980;2022-11-04T04:37:45;2.37;;;2.10;;
5428;SDS011;2737;52.386;9.980;2022-11-04T04:40:14;3.30;;;2.87;;
5428;SDS011;2737;52.386;9.980;2022-11-04T04:43:03;3.60;;;3.23;;
5428;SDS011;2737;52.386;9.980;2022-11-04T04:45:48;4.70;;;3.60;;
5428;SDS011;2737;52.386;9.980;2022-11-04T04:48:19;4.60;;;4.10;;
5428;SDS011;2737;52.386;9.980;2022-11-04T04:50:47;6.20;;;4.10;;
5428;SDS011;2737;52.386;9.980;2022-11-04T04:53:16;5.43;;;4.10;;
5428;SDS011;2737;52.386;9.980;2022-11-04T04:55:43;4.10;;;3.53;;
5428;SDS011;2737;52.386;9.980;2022-11-04T04:58:10;4.30;;;2.93;;
5428;SDS011;2737;52.386;9.980;2022-11-04T05:00:37;3.80;;;2.80;;
5428;SDS011;2737;52.386;9.980;2022-11-04T05:03:04;3.87;;;3.47;;
5428;SDS011;2737;52.386;9.980;2022-11-04T05:05:32;5.23;;;4.00;;
5428;SDS011;2737;52.386;9.980;2022-11-04T05:08:02;5.60;;;3.73;;
5428;SDS011;2737;52.386;9.980;2022-11-04T05:10:30;8.93;;;4.53;;
5428;SDS011;2737;52.386;9.980;2022-11-04T05:12:58;4.30;;;3.90;;
5428;SDS011;2737;52.386;9.980;2022-11-04T05:15:48;4.67;;;4.27;;
5428;SDS011;2737;52.386;9.980;2022-11-04T05:18:16;5.43;;;4.93;;
5428;SDS011;2737;52.386;9.980;2022-11-04T05:20:44;5.50;;;4.60;;
5428;SDS011;2737;52.386;9.980;2022-11-04T05:23:11;5.40;;;4.90;;
5428;SDS011;2737;52.386;9.980;2022-11-04T05:25:39;7.73;;;5.40;;
5428;SDS011;2737;52.386;9.980;2022-11-04T05:28:06;6.17;;;4.50;;
5428;SDS011;2737;52.386;9.980;2022-11-04T05:30:34;5.27;;;4.70;;
5428;SDS011;2737;52.386;9.980;2022-11-04T05:33:01;7.37;;;5.47;;
5428;SDS011;2737;52.386;9.980;2022-11-04T05:35:28;6.00;;;4.73;;
5428;SDS011;2737;52.386;9.980;2022-11-04T05:37:57;5.17;;;4.67;;
5428;SDS011;2737;52.386;9.980;2022-11-04T05:40:24;4.87;;;4.40;;
5428;SDS011;2737;52.386;9.980;2022-11-04T05:42:51;4.97;;;4.20;;
5428;SDS011;2737;52.386;9.980;2022-11-04T05:45:18;6.17;;;5.30;;
5428;SDS011;2737;52.386;9.980;2022-11-04T05:47:46;5.40;;;4.70;;
5428;SDS011;2737;52.386;9.980;2022-11-04T05:50:13;5.73;;;4.83;;
5428;SDS011;2737;52.386;9.980;2022-11-04T05:52:40;5.80;;;4.70;;
5428;SDS011;2737;52.386;9.980;2022-11-04T05:55:08;7.10;;;4.30;;
5428;SDS011;2737;52.386;9.980;2022-11-04T05:57:35;12.60;;;4.70;;
5428;SDS011;2737;52.386;9.980;2022-11-04T06:00:03;6.23;;;4.97;;
5428;SDS011;2737;52.386;9.980;2022-11-04T06:02:31;5.13;;;4.53;;
5428;SDS011;2737;52.386;9.980;2022-11-04T06:04:58;4.90;;;4.37;;
5428;SDS011;2737;52.386;9.980;2022-11-04T06:07:25;5.37;;;4.63;;
5428;SDS011;2737;52.386;9.980;2022-11-04T06:09:52;4.20;;;3.80;;
5428;SDS011;2737;52.386;9.980;2022-11-04T06:12:21;5.40;;;4.90;;
5428;SDS011;2737;52.386;9.980;2022-11-04T06:14:48;7.03;;;4.60;;
5428;SDS011;2737;52.386;9.980;2022-11-04T06:17:15;5.93;;;4.47;;
5428;SDS011;2737;52.386;9.980;2022-11-04T06:19:43;4.60;;;4.20;;
5428;SDS011;2737;52.386;9.980;2022-11-04T06:22:11;4.73;;;4.33;;
5428;SDS011;2737;52.386;9.980;2022-11-04T06:24:39;5.20;;;4.17;;
5428;SDS011;2737;52.386;9.980;2022-11-04T06:27:06;5.73;;;5.20;;
5428;SDS011;2737;52.386;9.980;2022-11-04T06:29:36;5.90;;;5.30;;
5428;SDS011;2737;52.386;9.980;2022-11-04T06:32:05;14.03;;;5.53;;
5428;SDS011;2737;52.386;9.980;2022-11-04T06:34:32;6.90;;;5.63;;
5428;SDS011;2737;52.386;9.980;2022-11-04T06:36:59;8.27;;;5.53;;
5428;SDS011;2737;52.386;9.980;2022-11-04T06:39:26;9.93;;;5.80;;
5428;SDS011;2737;52.386;9.980;2022-11-04T06:41:53;8.37;;;6.20;;
5428;SDS011;2737;52.386;9.980;2022-11-04T06:44:20;9.03;;;4.80;;
5428;SDS011;2737;52.386;9.980;2022-11-04T06:46:49;5.13;;;4.63;;
5428;SDS011;2737;52.386;9.980;2022-11-04T06:49:18;7.20;;;4.80;;
5428;SDS011;2737;52.386;9.980;2022-11-04T06:51:47;7.20;;;4.90;;
5428;SDS011;2737;52.386;9.980;2022-11-04T06:54:14;5.20;;;4.70;;
5428;SDS011;2737;52.386;9.980;2022-11-04T06:56:43;5.60;;;4.97;;
5428;SDS011;2737;52.386;9.980;2022-11-04T06:59:11;6.73;;;4.97;;
5428;SDS011;2737;52.386;9.980;2022-11-04T07:01:41;6.17;;;5.10;;
5428;SDS011;2737;52.386;9.980;2022-11-04T07:04:09;5.10;;;4.33;;
5428;SDS011;2737;52.386;9.980;2022-11-04T07:06:36;5.63;;;5.03;;
5428;SDS011;2737;52.386;9.980;2022-11-04T07:09:06;6.00;;;4.57;;
5428;SDS011;2737;52.386;9.980;2022-11-04T07:11:36;6.63;;;5.00;;
5428;SDS011;2737;52.386;9.980;2022-11-04T07:14:04;6.10;;;4.50;;
5428;SDS011;2737;52.386;9.980;2022-11-04T07:16:33;5.40;;;4.70;;
5428;SDS011;2737;52.386;9.980;2022-11-04T07:19:00;6.17;;;5.33;;
5428;SDS011;2737;52.386;9.980;2022-11-04T07:21:28;12.00;;;5.10;;
5428;SDS011;2737;52.386;9.980;2022-11-04T07:23:55;6.20;;;4.83;;
5428;SDS011;2737;52.386;9.980;2022-11-04T07:26:22;6.60;;;4.70;;
5428;SDS011;2737;52.386;9.980;2022-11-04T07:28:50;7.17;;;4.10;;
5428;SDS011;2737;52.386;9.980;2022-11-04T07:31:17;5.30;;;4.80;;
5428;SDS011;2737;52.386;9.980;2022-11-04T07:33:46;5.57;;;5.07;;
5428;SDS011;2737;52.386;9.980;2022-11-04T07:36:15;8.00;;;5.30;;
5428;SDS011;2737;52.386;9.980;2022-11-04T07:38:44;10.10;;;5.03;;
5428;SDS011;2737;52.386;9.980;2022-11-04T07:41:12;7.13;;;4.77;;
5428;SDS011;2737;52.386;9.980;2022-11-04T07:43:40;6.50;;;4.63;;
5428;SDS011;2737;52.386;9.980;2022-11-04T07:46:08;8.17;;;4.40;;
5428;SDS011;2737;52.386;9.980;2022-11-04T07:48:37;8.33;;;4.70;;
5428;SDS011;2737;52.386;9.980;2022-11-04T07:51:04;8.13;;;4.57;;
5428;SDS011;2737;52.386;9.980;2022-11-04T07:53:32;5.53;;;5.03;;
5428;SDS011;2737;52.386;9.980;2022-11-04T07:56:03;9.70;;;5.00;;
5428;SDS011;2737;52.386;9.980;2022-11-04T07:58:32;10.60;;;4.63;;
5428;SDS011;2737;52.386;9.980;2022-11-04T08:01:00;7.80;;;5.67;;
5428;SDS011;2737;52.386;9.980;2022-11-04T08:03:28;8.80;;;5.00;;
5428;SDS011;2737;52.386;9.980;2022-11-04T08:05:55;9.53;;;4.70;;
5428;SDS011;2737;52.386;9.980;2022-11-04T08:08:23;6.83;;;4.60;;
5428;SDS011;2737;52.386;9.980;2022-11-04T08:10:51;8.40;;;5.20;;
5428;SDS011;2737;52.386;9.980;2022-11-04T08:13:20;14.90;;;5.70;;
5428;SDS011;2737;52.386;9.980;2022-11-04T08:15:47;6.60;;;5.33;;
5428;SDS011;2737;52.386;9.980;2022-11-04T08:18:14;7.83;;;5.40;;
5428;SDS011;2737;52.386;9.980;2022-11-04T08:20:45;7.80;;;5.23;;
5428;SDS011;2737;52.386;9.980;2022-11-04T08:23:14;5.93;;;4.33;;
5428;SDS011;2737;52.386;9.980;2022-11-04T08:25:45;8.80;;;4.70;;
5428;SDS011;2737;52.386;9.980;2022-11-04T08:28:12;8.60;;;5.23;;
5428;SDS011;2737;52.386;9.980;2022-11-04T08:30:50;7.40;;;4.60;;
5428;SDS011;2737;52.386;9.980;2022-11-04T08:33:17;8.37;;;5.57;;
5428;SDS011;2737;52.386;9.980;2022-11-04T08:35:44;9.93;;;5.17;;
5428;SDS011;2737;52.386;9.980;2022-11-04T08:38:11;8.43;;;4.40;;
5428;SDS011;2737;52.386;9.980;2022-11-04T08:40:39;7.40;;;4.20;;
5428;SDS011;2737;52.386;9.980;2022-11-04T08:43:06;7.70;;;4.87;;
5428;SDS011;2737;52.386;9.980;2022-11-04T08:45:37;8.30;;;4.87;;
5428;SDS011;2737;52.386;9.980;2022-11-04T08:48:06;5.53;;;3.90;;
5428;SDS011;2737;52.386;9.980;2022-11-04T08:50:34;10.63;;;5.17;;
5428;SDS011;2737;52.386;9.980;2022-11-04T08:53:01;8.23;;;4.70;;
5428;SDS011;2737;52.386;9.980;2022-11-04T08:55:29;9.20;;;4.07;;
5428;SDS011;2737;52.386;9.980;2022-11-04T08:57:57;9.13;;;5.13;;
5428;SDS011;2737;52.386;9.980;2022-11-04T09:00:24;7.50;;;4.73;;
5428;SDS011;2737;52.386;9.980;2022-11-04T09:02:52;14.83;;;4.90;;
5428;SDS011;2737;52.386;9.980;2022-11-04T09:05:21;7.87;;;5.40;;
5428;SDS011;2737;52.386;9.980;2022-11-04T09:07:48;11.70;;;4.40;;
5428;SDS011;2737;52.386;9.980;2022-11-04T09:10:15;10.83;;;4.20;;
5428;SDS011;2737;52.386;9.980;2022-11-04T09:12:43;6.43;;;3.80;;
5428;SDS011;2737;52.386;9.980;2022-11-04T09:15:10;8.97;;;3.43;;
5428;SDS011;2737;52.386;9.980;2022-11-04T09:17:40;4.83;;;3.70;;
5428;SDS011;2737;52.386;9.980;2022-11-04T09:20:08;8.00;;;3.53;;
5428;SDS011;2737;52.386;9.980;2022-11-04T09:22:37;9.10;;;3.80;;
5428;SDS011;2737;52.386;9.980;2022-11-04T09:25:04;4.83;;;3.43;;
5428;SDS011;2737;52.386;9.980;2022-11-04T09:27:32;11.37;;;3.60;;
5428;SDS011;2737;52.386;9.980;2022-11-04T09:29:59;7.17;;;3.30;;
5428;SDS011;2737;52.386;9.980;2022-11-04T09:32:26;9.00;;;3.60;;
5428;SDS011;2737;52.386;9.980;2022-11-04T09:34:53;8.60;;;3.87;;
5428;SDS011;2737;52.386;9.980;2022-11-04T09:37:20;10.60;;;3.70;;
5428;SDS011;2737;52.386;9.980;2022-11-04T09:39:48;10.43;;;3.37;;
5428;SDS011;2737;52.386;9.980;2022-11-04T09:42:23;20.43;;;4.93;;
5428;SDS011;2737;52.386;9.980;2022-11-04T09:45:03;8.30;;;3.73;;
5428;SDS011;2737;52.386;9.980;2022-11-04T09:47:35;7.90;;;4.43;;
5428;SDS011;2737;52.386;9.980;2022-11-04T09:50:05;9.27;;;5.03;;
5428;SDS011;2737;52.386;9.980;2022-11-04T09:52:36;11.20;;;4.50;;
5428;SDS011;2737;52.386;9.980;2022-11-04T09:55:11;7.33;;;4.40;;
5428;SDS011;2737;52.386;9.980;2022-11-04T09:57:42;9.93;;;3.90;;
5428;SDS011;2737;52.386;9.980;2022-11-04T10:00:09;8.17;;;4.50;;
5428;SDS011;2737;52.386;9.980;2022-11-04T10:02:53;11.40;;;5.07;;
5428;SDS011;2737;52.386;9.980;2022-11-04T10:05:30;6.20;;;4.07;;
5428;SDS011;2737;52.386;9.980;2022-11-04T10:08:17;11.87;;;4.73;;
5428;SDS011;2737;52.386;9.980;2022-11-04T10:10:58;6.80;;;3.90;;
5428;SDS011;2737;52.386;9.980;2022-11-04T10:13:32;7.30;;;3.60;;
5428;SDS011;2737;52.386;9.980;2022-11-04T10:16:19;6.07;;;3.43;;
5428;SDS011;2737;52.386;9.980;2022-11-04T10:19:05;6.47;;;3.90;;
5428;SDS011;2737;52.386;9.980;2022-11-04T10:21:47;7.60;;;4.50;;
5428;SDS011;2737;52.386;9.980;2022-11-04T10:24:28;10.33;;;3.93;;
5428;SDS011;2737;52.386;9.980;2022-11-04T10:27:08;9.50;;;3.50;;
5428;SDS011;2737;52.386;9.980;2022-11-04T10:29:41;4.97;;;2.90;;
5428;SDS011;2737;52.386;9.980;2022-11-04T10:32:11;7.90;;;3.07;;
5428;SDS011;2737;52.386;9.980;2022-11-04T10:34:42;6.10;;;2.87;;
5428;SDS011;2737;52.386;9.980;2022-11-04T10:37:14;15.53;;;3.20;;
5428;SDS011;2737;52.386;9.980;2022-11-04T10:39:42;6.77;;;2.60;;
5428;SDS011;2737;52.386;9.980;2022-11-04T10:42:12;7.00;;;3.20;;
5428;SDS011;2737;52.386;9.980;2022-11-04T10:44:42;4.63;;;2.70;;
5428;SDS011;2737;52.386;9.980;2022-11-04T10:47:17;4.50;;;3.10;;
5428;SDS011;2737;52.386;9.980;2022-11-04T10:50:00;12.17;;;3.27;;
5428;SDS011;2737;52.386;9.980;2022-11-04T10:52:38;4.80;;;2.90;;
5428;SDS011;2737;52.386;9.980;2022-11-04T10:55:09;4.70;;;2.57;;
5428;SDS011;2737;52.386;9.980;2022-11-04T10:57:42;6.37;;;2.20;;
5428;SDS011;2737;52.386;9.980;2022-11-04T11:00:10;6.17;;;2.67;;
5428;SDS011;2737;52.386;9.980;2022-11-04T11:02:59;4.40;;;2.20;;
5428;SDS011;2737;52.386;9.980;2022-11-04T11:05:26;4.50;;;2.73;;
5428;SDS011;2737;52.386;9.980;2022-11-04T11:07:54;7.20;;;2.63;;
5428;SDS011;2737;52.386;9.980;2022-11-04T11:10:23;3.30;;;2.20;;
5428;SDS011;2737;52.386;9.980;2022-11-04T11:12:57;16.07;;;2.80;;
5428;SDS011;2737;52.386;9.980;2022-11-04T11:15:28;2.80;;;2.20;;
5428;SDS011;2737;52.386;9.980;2022-11-04T11:18:00;3.10;;;2.20;;
5428;SDS011;2737;52.386;9.980;2022-11-04T11:20:39;2.83;;;2.53;;
5428;SDS011;2737;52.386;9.980;2022-11-04T11:23:11;7.00;;;1.83;;
5428;SDS011;2737;52.386;9.980;2022-11-04T11:25:59;3.70;;;2.10;;
5428;SDS011;2737;52.386;9.980;2022-11-04T11:28:29;6.43;;;2.13;;
5428;SDS011;2737;52.386;9.980;2022-11-04T11:31:02;5.00;;;2.20;;
5428;SDS011;2737;52.386;9.980;2022-11-04T11:33:36;4.77;;;1.90;;
5428;SDS011;2737;52.386;9.980;2022-11-04T11:36:07;3.03;;;1.90;;
5428;SDS011;2737;52.386;9.980;2022-11-04T11:38:50;2.30;;;2.00;;
5428;SDS011;2737;52.386;9.980;2022-11-04T11:41:21;3.77;;;2.00;;
5428;SDS011;2737;52.386;9.980;2022-11-04T11:43:57;7.53;;;2.00;;
5428;SDS011;2737;52.386;9.980;2022-11-04T11:46:30;3.53;;;2.03;;
5428;SDS011;2737;52.386;9.980;2022-11-04T11:48:59;4.53;;;2.30;;
5428;SDS011;2737;52.386;9.980;2022-11-04T11:51:28;4.70;;;2.30;;
5428;SDS011;2737;52.386;9.980;2022-11-04T11:54:00;5.53;;;2.40;;
5428;SDS011;2737;52.386;9.980;2022-11-04T11:56:34;3.37;;;2.47;;
5428;SDS011;2737;52.386;9.980;2022-11-04T11:59:12;5.40;;;2.47;;
5428;SDS011;2737;52.386;9.980;2022-11-04T12:01:45;3.33;;;1.90;;
5428;SDS011;2737;52.386;9.980;2022-11-04T12:04:15;3.70;;;2.00;;
5428;SDS011;2737;52.386;9.980;2022-11-04T12:06:45;7.33;;;2.07;;
5428;SDS011;2737;52.386;9.980;2022-11-04T12:09:27;2.17;;;1.80;;
5428;SDS011;2737;52.386;9.980;2022-11-04T12:12:04;7.53;;;2.37;;
5428;SDS011;2737;52.386;9.980;2022-11-04T12:14:47;4.97;;;2.40;;
5428;SDS011;2737;52.386;9.980;2022-11-04T12:17:26;5.57;;;2.60;;
5428;SDS011;2737;52.386;9.980;2022-11-04T12:20:09;4.90;;;2.37;;
5428;SDS011;2737;52.386;9.980;2022-11-04T12:22:53;4.73;;;2.40;;
5428;SDS011;2737;52.386;9.980;2022-11-04T12:25:27;2.67;;;2.23;;
5428;SDS011;2737;52.386;9.980;2022-11-04T12:28:04;5.50;;;2.40;;
5428;SDS011;2737;52.386;9.980;2022-11-04T12:30:46;5.33;;;2.27;;
5428;SDS011;2737;52.386;9.980;2022-11-04T12:33:24;3.00;;;2.00;;
5428;SDS011;2737;52.386;9.980;2022-11-04T12:38:56;7.80;;;2.50;;
5428;SDS011;2737;52.386;9.980;2022-11-04T12:41:51;4.40;;;2.60;;
5428;SDS011;2737;52.386;9.980;2022-11-04T12:44:30;6.53;;;2.50;;
5428;SDS011;2737;52.386;9.980;2022-11-04T12:47:07;6.40;;;2.80;;
5428;SDS011;2737;52.386;9.980;2022-11-04T12:49:51;7.03;;;2.50;;
5428;SDS011;2737;52.386;9.980;2022-11-04T12:55:03;3.77;;;1.90;;
5428;SDS011;2737;52.386;9.980;2022-11-04T12:57:45;5.40;;;2.40;;
5428;SDS011;2737;52.386;9.980;2022-11-04T13:00:19;4.27;;;2.63;;
5428;SDS011;2737;52.386;9.980;2022-11-04T13:02:53;5.10;;;2.90;;
5428;SDS011;2737;52.386;9.980;2022-11-04T13:05:29;2.73;;;2.23;;
5428;SDS011;2737;52.386;9.980;2022-11-04T13:08:05;3.40;;;1.97;;
5428;SDS011;2737;52.386;9.980;2022-11-04T13:10:39;2.93;;;2.20;;
5428;SDS011;2737;52.386;9.980;2022-11-04T13:13:10;5.83;;;2.20;;
5428;SDS011;2737;52.386;9.980;2022-11-04T13:15:42;3.00;;;2.10;;
5428;SDS011;2737;52.386;9.980;2022-11-04T13:18:14;5.33;;;2.17;;
5428;SDS011;2737;52.386;9.980;2022-11-04T13:20:44;2.97;;;1.80;;
5428;SDS011;2737;52.386;9.980;2022-11-04T13:23:18;2.87;;;2.23;;
5428;SDS011;2737;52.386;9.980;2022-11-04T13:25:49;4.03;;;2.30;;
5428;SDS011;2737;52.386;9.980;2022-11-04T13:28:18;6.30;;;2.33;;
5428;SDS011;2737;52.386;9.980;2022-11-04T13:30:50;4.73;;;2.33;;
5428;SDS011;2737;52.386;9.980;2022-11-04T13:33:26;3.77;;;2.60;;
5428;SDS011;2737;52.386;9.980;2022-11-04T13:36:03;6.57;;;2.70;;
5428;SDS011;2737;52.386;9.980;2022-11-04T13:38:48;3.70;;;2.90;;
5428;SDS011;2737;52.386;9.980;2022-11-04T13:41:24;8.30;;;3.33;;
5428;SDS011;2737;52.386;9.980;2022-11-04T13:44:04;4.50;;;2.57;;
5428;SDS011;2737;52.386;9.980;2022-11-04T13:46:40;4.43;;;2.70;;
5428;SDS011;2737;52.386;9.980;2022-11-04T13:49:17;2.50;;;2.20;;
5428;SDS011;2737;52.386;9.980;2022-11-04T13:52:02;5.13;;;2.63;;
5428;SDS011;2737;52.386;9.980;2022-11-04T13:54:35;5.97;;;2.50;;
5428;SDS011;2737;52.386;9.980;2022-11-04T13:57:07;6.30;;;3.00;;
5428;SDS011;2737;52.386;9.980;2022-11-04T13:59:37;3.37;;;1.93;;
5428;SDS011;2737;52.386;9.980;2022-11-04T14:02:22;9.53;;;5.13;;
5428;SDS011;2737;52.386;9.980;2022-11-04T14:04:52;4.70;;;3.23;;
5428;SDS011;2737;52.386;9.980;2022-11-04T14:07:23;6.90;;;3.27;;
5428;SDS011;2737;52.386;9.980;2022-11-04T14:10:44;6.07;;;3.47;;
5428;SDS011;2737;52.386;9.980;2022-11-04T14:22:30;5.43;;;3.50;;
5428;SDS011;2737;52.386;9.980;2022-11-04T14:25:17;7.57;;;2.60;;
5428;SDS011;2737;52.386;9.980;2022-11-04T14:27:46;3.83;;;2.37;;
5428;SDS011;2737;52.386;9.980;2022-11-04T14:33:21;4.17;;;2.47;;
5428;SDS011;2737;52.386;9.980;2022-11-04T14:35:54;3.93;;;2.70;;
5428;SDS011;2737;52.386;9.980;2022-11-04T14:38:25;5.40;;;3.00;;
5428;SDS011;2737;52.386;9.980;2022-11-04T14:43:41;7.40;;;3.00;;
5428;SDS011;2737;52.386;9.980;2022-11-04T14:46:11;5.80;;;2.40;;
5428;SDS011;2737;52.386;9.980;2022-11-04T14:48:45;4.63;;;2.60;;
5428;SDS011;2737;52.386;9.980;2022-11-04T14:51:19;9.03;;;2.50;;
5428;SDS011;2737;52.386;9.980;2022-11-04T14:53:51;5.57;;;2.57;;
5428;SDS011;2737;52.386;9.980;2022-11-04T14:56:22;5.87;;;2.23;;
5428;SDS011;2737;52.386;9.980;2022-11-04T14:58:53;5.57;;;2.80;;
5428;SDS011;2737;52.386;9.980;2022-11-04T15:01:22;5.30;;;2.70;;
5428;SDS011;2737;52.386;9.980;2022-11-04T15:03:50;4.97;;;2.70;;
5428;SDS011;2737;52.386;9.980;2022-11-04T15:06:22;4.70;;;2.60;;
5428;SDS011;2737;52.386;9.980;2022-11-04T15:08:53;4.63;;;2.63;;
5428;SDS011;2737;52.386;9.980;2022-11-04T15:11:22;3.20;;;2.23;;
5428;SDS011;2737;52.386;9.980;2022-11-04T15:14:12;9.20;;;2.23;;
5428;SDS011;2737;52.386;9.980;2022-11-04T15:16:42;4.67;;;2.40;;
5428;SDS011;2737;52.386;9.980;2022-11-04T15:19:13;4.87;;;2.20;;
5428;SDS011;2737;52.386;9.980;2022-11-04T15:21:47;8.43;;;2.63;;
5428;SDS011;2737;52.386;9.980;2022-11-04T15:24:16;5.70;;;2.70;;
5428;SDS011;2737;52.386;9.980;2022-11-04T15:26:48;6.70;;;2.60;;
5428;SDS011;2737;52.386;9.980;2022-11-04T15:29:16;5.03;;;2.90;;
5428;SDS011;2737;52.386;9.980;2022-11-04T15:31:50;9.33;;;2.83;;
5428;SDS011;2737;52.386;9.980;2022-11-04T15:34:19;5.67;;;2.50;;
5428;SDS011;2737;52.386;9.980;2022-11-04T15:36:47;5.57;;;2.40;;
5428;SDS011;2737;52.386;9.980;2022-11-04T15:39:18;5.17;;;2.63;;
5428;SDS011;2737;52.386;9.980;2022-11-04T15:41:47;6.83;;;2.73;;
5428;SDS011;2737;52.386;9.980;2022-11-04T15:44:35;5.23;;;3.10;;
5428;SDS011;2737;52.386;9.980;2022-11-04T15:47:19;6.83;;;3.17;;
5428;SDS011;2737;52.386;9.980;2022-11-04T15:49:48;8.60;;;2.17;;
5428;SDS011;2737;52.386;9.980;2022-11-04T15:52:18;3.90;;;2.07;;
5428;SDS011;2737;52.386;9.980;2022-11-04T15:54:48;5.00;;;2.90;;
5428;SDS011;2737;52.386;9.980;2022-11-04T15:57:18;3.80;;;2.40;;
5428;SDS011;2737;52.386;9.980;2022-11-04T15:59:48;7.33;;;2.70;;
5428;SDS011;2737;52.386;9.980;2022-11-04T16:02:22;5.30;;;3.00;;
5428;SDS011;2737;52.386;9.980;2022-11-04T16:05:06;5.77;;;3.43;;
5428;SDS011;2737;52.386;9.980;2022-11-04T16:07:51;7.67;;;4.00;;
5428;SDS011;2737;52.386;9.980;2022-11-04T16:10:26;9.00;;;5.17;;
5428;SDS011;2737;52.386;9.980;2022-11-04T16:12:55;29.77;;;13.27;;